Beaverdam, Utah
Current Conditions -  °F | °C
As of 10:51 PM on Friday 28 Nov 2014 (Local Time) from KLGU Reporting Station
Clear Clear  
Wind Chill: 53°   Ceiling: Unl
Heat Index: 53°   Visibility: 10mi
Dew Point: 20°   Wind: 3mph
Humidity: 27%   Direction: NA
Pressure: 29.73"   Gusts: NA
Location:  41.8005°N, 112.082°W
Report Text: KLGU 290551Z AUTO VRB03KT 10SM CLR 12/M07 A2973 RMK AO2 SLP047 T01171067 10139 20056 56013
Loading
Personal Weather Stations






























Interactive Weather Map New forecast layout! Learn more

10-Day Weather Forecast

Advertisements
Track Severe Weather on mobile